Time;durP1;ratioP1;P1;durP2;ratioP2;P2;SDS_P1;SDS_P2;PMS_P1;PMS_P2;Temp;Humidity;BMP_temperature;BMP_pressure;BME280_temperature;BME280_humidity;BME280_pressure;Samples;Min_cycle;Max_cycle;Signal;HPM_P1;HPM_P2
2021/03/19 00:02:42;;;;;;;25.30;17.58;;;3.00;99.90;;;;;;10383734;28;20497;-73
2021/03/19 00:07:53;;;;;;;27.73;17.77;;;3.10;99.90;;;;;;10382196;28;20049;-73
2021/03/19 00:12:56;;;;;;;34.17;19.40;;;3.00;99.90;;;;;;10402429;28;20103;-73
2021/03/19 00:18:00;;;;;;;36.13;20.45;;;3.00;99.90;;;;;;10380487;28;20486;-73
2021/03/19 00:23:06;;;;;;;23.50;17.20;;;2.90;99.90;;;;;;10367582;28;20411;-73
2021/03/19 00:28:13;;;;;;;25.23;18.20;;;3.00;99.90;;;;;;10391163;28;20433;-73
2021/03/19 00:33:15;;;;;;;25.33;18.55;;;3.00;99.90;;;;;;10392551;28;20113;-73
2021/03/19 00:38:17;;;;;;;30.83;20.73;;;3.00;99.90;;;;;;10395674;28;20052;-73
2021/03/19 00:43:19;;;;;;;29.90;19.55;;;3.10;99.90;;;;;;10388961;28;20056;-73
2021/03/19 00:48:22;;;;;;;25.73;19.17;;;3.20;99.90;;;;;;10373956;28;20385;-73
2021/03/19 00:53:25;;;;;;;31.08;20.98;;;3.20;99.90;;;;;;10383132;28;20081;-73
2021/03/19 00:58:28;;;;;;;27.33;19.98;;;3.30;99.90;;;;;;10384793;28;20103;-74
2021/03/19 01:03:30;;;;;;;25.10;18.23;;;3.30;99.90;;;;;;10398673;28;20100;-73
2021/03/19 01:08:34;;;;;;;24.67;18.80;;;3.20;99.90;;;;;;10377871;28;20053;-73
2021/03/19 01:13:35;;;;;;;35.97;23.38;;;3.20;99.90;;;;;;10380931;28;20038;-73
2021/03/19 01:18:37;;;;;;;34.03;22.52;;;3.20;99.90;;;;;;10374884;28;20049;-73
2021/03/19 01:23:48;;;;;;;33.05;23.88;;;3.10;99.90;;;;;;10391868;28;20049;-73
2021/03/19 01:28:50;;;;;;;38.92;27.35;;;3.10;99.90;;;;;;10379643;28;20451;-73
2021/03/19 01:33:58;;;;;;;49.33;30.73;;;3.00;99.90;;;;;;10384710;28;20518;-73
2021/03/19 01:38:59;;;;;;;43.85;30.10;;;2.80;99.90;;;;;;10389566;28;20057;-73
2021/03/19 01:44:10;;;;;;;50.22;32.92;;;2.70;99.90;;;;;;10382608;28;20037;-74
2021/03/19 01:49:31;;;;;;;;;;;2.60;99.90;;;;;;10381222;28;20049;-73
2021/03/19 01:55:22;;;;;;;38.97;27.58;;;2.50;99.90;;;;;;10385097;28;19925;-73
2021/03/19 02:01:00;;;;;;;36.05;26.00;;;2.30;99.90;;;;;;10350239;28;20060;-73
2021/03/19 08:16:05;;;;;;;19.73;13.60;;;4.20;99.90;;;;;;6867302;26;20176;-88
2021/03/19 08:21:40;;;;;;;18.17;13.05;;;4.50;99.90;;;;;;10356327;28;20074;-89
2021/03/19 08:26:44;;;;;;;18.45;13.30;;;4.80;99.90;;;;;;10361818;28;20077;-88
2021/03/19 08:31:59;;;;;;;18.42;13.48;;;4.80;99.90;;;;;;10366480;28;20096;-88
2021/03/19 08:37:43;;;;;;;15.45;12.43;;;5.00;99.90;;;;;;10368223;28;20050;-88
2021/03/19 08:43:10;;;;;;;18.20;13.38;;;5.50;99.90;;;;;;10328187;28;20055;-88
2021/03/19 08:48:16;;;;;;;19.27;13.40;;;5.10;99.90;;;;;;10367900;28;20130;-89
2021/03/19 08:53:24;;;;;;;18.40;12.65;;;5.10;99.90;;;;;;10342171;28;20054;-89
2021/03/19 08:58:31;;;;;;;17.70;12.95;;;5.00;99.90;;;;;;10326930;28;20519;-88
2021/03/19 09:03:52;;;;;;;18.40;11.65;;;4.70;99.90;;;;;;10352630;28;20080;-88
2021/03/19 09:08:58;;;;;;;17.13;12.13;;;4.20;99.90;;;;;;10355685;28;20092;-89
2021/03/19 09:13:59;;;;;;;20.17;11.52;;;4.10;99.90;;;;;;10361241;28;20077;-89
2021/03/19 09:19:25;;;;;;;15.57;10.57;;;4.20;99.90;;;;;;10384040;28;20115;-90
2021/03/19 09:24:29;;;;;;;17.30;10.43;;;4.70;99.90;;;;;;10367340;28;20050;-90
2021/03/19 09:29:36;;;;;;;15.77;10.35;;;4.40;99.90;;;;;;10340206;28;20046;-90
2021/03/19 09:34:45;;;;;;;12.52;8.63;;;4.70;99.90;;;;;;10358206;28;20120;-90
2021/03/19 09:39:48;;;;;;;13.30;8.68;;;4.70;99.90;;;;;;10366634;28;20053;-90
2021/03/19 09:44:59;;;;;;;14.30;9.35;;;4.80;99.90;;;;;;10372688;28;20107;-89
2021/03/19 09:50:25;;;;;;;10.75;7.25;;;5.10;99.90;;;;;;10369772;28;20052;-90
2021/03/19 09:55:53;;;;;;;7.65;5.10;;;5.50;99.90;;;;;;10369059;28;20418;-90
2021/03/19 10:01:21;;;;;;;9.35;5.22;;;5.90;86.20;;;;;;10344343;28;20077;-90
2021/03/19 10:06:42;;;;;;;6.90;4.13;;;6.20;80.00;;;;;;10375688;28;20052;-90
2021/03/19 10:11:51;;;;;;;6.70;3.97;;;6.20;73.10;;;;;;10375314;28;20396;-90
2021/03/19 10:17:12;;;;;;;6.63;4.10;;;5.50;67.10;;;;;;10374638;28;20690;-85
2021/03/19 10:22:37;;;;;;;8.73;5.10;;;5.20;70.90;;;;;;10373373;28;20387;-85
2021/03/19 10:27:49;;;;;;;8.30;5.53;;;4.80;75.20;;;;;;10372528;28;20353;-85
2021/03/19 10:33:01;;;;;;;7.65;5.65;;;5.10;75.00;;;;;;10366400;28;20101;-85
2021/03/19 10:38:23;;;;;;;12.13;6.97;;;5.30;72.50;;;;;;10339907;28;20495;-85
2021/03/19 10:43:34;;;;;;;10.05;6.28;;;5.50;72.50;;;;;;10371861;28;20100;-85
2021/03/19 10:48:57;;;;;;;10.90;7.25;;;5.80;75.90;;;;;;10369651;28;20125;-85
2021/03/19 10:54:08;;;;;;;10.88;7.15;;;6.10;72.30;;;;;;10341989;28;20078;-83
2021/03/19 10:59:17;;;;;;;10.30;7.00;;;6.10;74.30;;;;;;10351147;28;20093;-82
2021/03/19 11:04:33;;;;;;;9.70;6.65;;;6.10;74.40;;;;;;10355992;28;20472;-82
2021/03/19 11:09:58;;;;;;;11.35;6.28;;;6.00;70.20;;;;;;10396264;28;20057;-82
2021/03/19 11:15:03;;;;;;;9.30;6.00;;;6.10;75.60;;;;;;10374003;28;20045;-82
2021/03/19 11:20:31;;;;;;;6.78;4.82;;;5.70;70.80;;;;;;10404527;28;20049;-81
2021/03/19 11:25:49;;;;;;;7.32;4.72;;;5.80;67.00;;;;;;10384504;28;20149;-82
2021/03/19 11:30:51;;;;;;;7.43;5.18;;;6.00;63.80;;;;;;10390677;28;20561;-82
2021/03/19 11:36:10;;;;;;;6.68;4.70;;;6.20;65.10;;;;;;10356274;28;20125;-82
2021/03/19 11:41:43;;;;;;;6.90;4.47;;;6.30;60.30;;;;;;10361783;28;20462;-82
2021/03/19 11:46:45;;;;;;;8.55;4.90;;;6.80;63.40;;;;;;10347829;28;20054;-82
2021/03/19 11:51:47;;;;;;;6.75;4.50;;;6.80;61.00;;;;;;10366887;28;20053;-82
2021/03/19 11:56:49;;;;;;;6.50;4.43;;;6.50;59.40;;;;;;10380999;28;20396;-82
2021/03/19 12:01:50;;;;;;;6.55;4.25;;;6.20;58.00;;;;;;10356204;28;20056;-82
2021/03/19 12:06:52;;;;;;;6.60;4.15;;;6.20;60.20;;;;;;10350081;28;20713;-83
2021/03/19 12:11:54;;;;;;;6.03;3.92;;;6.60;57.40;;;;;;10387907;28;20133;-84
2021/03/19 12:16:56;;;;;;;6.85;4.32;;;6.70;55.90;;;;;;10348061;28;20108;-83
2021/03/19 12:21:58;;;;;;;5.65;3.60;;;6.50;57.70;;;;;;10345572;28;20447;-83
2021/03/19 12:27:08;;;;;;;5.15;3.70;;;6.50;56.60;;;;;;10356400;28;20037;-83
2021/03/19 12:32:10;;;;;;;5.60;3.95;;;6.30;56.30;;;;;;10350399;28;20045;-83
2021/03/19 12:37:13;;;;;;;6.65;4.10;;;6.50;55.60;;;;;;10351541;28;20198;-83
2021/03/19 12:42:15;;;;;;;5.88;3.47;;;6.50;55.00;;;;;;10341579;28;20132;-83
2021/03/19 12:47:16;;;;;;;5.47;3.13;;;6.50;54.90;;;;;;10343395;28;20045;-83
2021/03/19 12:52:19;;;;;;;5.72;3.45;;;6.50;55.10;;;;;;10348347;28;20124;-83
2021/03/19 12:57:20;;;;;;;7.50;3.13;;;6.60;56.10;;;;;;10346268;28;20045;-83
2021/03/19 13:02:34;;;;;;;8.38;3.60;;;6.40;55.90;;;;;;10346704;28;20133;-83
2021/03/19 13:07:37;;;;;;;4.68;3.00;;;5.80;56.00;;;;;;10345212;28;20092;-83
2021/03/19 13:12:41;;;;;;;5.88;2.92;;;6.50;57.40;;;;;;10347539;28;20050;-83
2021/03/19 13:17:44;;;;;;;7.28;2.95;;;6.90;54.10;;;;;;10353208;28;20059;-84
2021/03/19 13:22:47;;;;;;;5.13;2.97;;;7.40;54.40;;;;;;10348966;28;20159;-84
2021/03/19 13:27:51;;;;;;;6.00;3.10;;;7.70;55.20;;;;;;10362115;28;20104;-83
2021/03/19 13:33:03;;;;;;;4.10;2.50;;;7.60;53.80;;;;;;10363974;28;20468;-83
2021/03/19 13:38:09;;;;;;;5.07;2.45;;;7.40;51.10;;;;;;10361367;28;20052;-83
2021/03/19 13:43:12;;;;;;;4.88;2.65;;;7.10;51.60;;;;;;10363608;28;20112;-83
2021/03/19 13:48:14;;;;;;;5.13;2.60;;;7.00;51.20;;;;;;10363900;28;20085;-83
2021/03/19 13:53:16;;;;;;;5.45;2.45;;;7.20;51.90;;;;;;10363402;28;20125;-83
2021/03/19 13:58:23;;;;;;;4.57;2.38;;;7.70;51.90;;;;;;10369391;28;20049;-84
2021/03/19 14:03:28;;;;;;;5.03;2.83;;;7.70;52.30;;;;;;10363061;28;20050;-83
2021/03/19 14:14:59;;;;;;;3.95;2.30;;;7.10;51.00;;;;;;10387567;28;20041;-86
2021/03/19 14:20:01;;;;;;;5.40;2.28;;;7.20;53.20;;;;;;10405291;28;20061;-85
2021/03/19 14:25:06;;;;;;;4.47;2.35;;;7.20;51.20;;;;;;10406194;28;20499;-86
2021/03/19 14:30:10;;;;;;;4.03;2.30;;;6.90;52.20;;;;;;10395892;28;20077;-86
2021/03/19 14:35:18;;;;;;;4.13;2.20;;;6.50;53.40;;;;;;10383157;28;20073;-84
2021/03/19 14:40:29;;;;;;;4.18;2.38;;;6.80;52.80;;;;;;10388394;28;20123;-84
2021/03/19 14:45:31;;;;;;;5.63;2.40;;;7.20;58.10;;;;;;10393356;28;20490;-84
2021/03/19 14:50:37;;;;;;;4.50;2.20;;;7.00;59.50;;;;;;10410292;28;20080;-84
2021/03/19 14:55:40;;;;;;;4.55;2.78;;;6.40;61.90;;;;;;10408980;28;20149;-85
2021/03/19 15:00:44;;;;;;;3.38;2.17;;;5.80;64.60;;;;;;10409382;28;20073;-83
2021/03/19 15:05:46;;;;;;;4.95;2.15;;;6.00;65.80;;;;;;10406804;28;20502;-83
2021/03/19 15:10:51;;;;;;;3.88;2.08;;;6.50;64.70;;;;;;10390935;28;20130;-83
2021/03/19 15:15:52;;;;;;;3.53;2.20;;;6.40;66.20;;;;;;10391008;28;20049;-83
2021/03/19 15:20:57;;;;;;;4.40;2.22;;;6.60;66.30;;;;;;10423700;28;20085;-83
2021/03/19 15:26:01;;;;;;;4.60;1.90;;;7.00;63.30;;;;;;10396249;28;20092;-83
2021/03/19 15:31:05;;;;;;;5.75;2.22;;;7.00;61.60;;;;;;10362229;28;20046;-83
2021/03/19 15:36:09;;;;;;;4.68;1.92;;;6.90;59.10;;;;;;10357380;28;20049;-84
2021/03/19 15:41:11;;;;;;;3.60;1.70;;;6.70;60.20;;;;;;10374484;28;20062;-83
2021/03/19 15:46:13;;;;;;;3.00;1.40;;;6.50;56.90;;;;;;10401305;28;20100;-83
2021/03/19 15:51:15;;;;;;;3.78;1.50;;;6.40;54.30;;;;;;10371495;28;20048;-83
2021/03/19 15:56:17;;;;;;;3.10;1.50;;;6.30;54.70;;;;;;10407972;28;20128;-83
2021/03/19 16:01:19;;;;;;;3.13;1.42;;;6.10;54.10;;;;;;10356396;28;20058;-83
2021/03/19 16:06:20;;;;;;;2.95;1.50;;;5.90;54.20;;;;;;10368084;28;20084;-85
2021/03/19 16:11:24;;;;;;;5.10;1.63;;;6.40;55.10;;;;;;10391190;28;20054;-84
2021/03/19 16:16:27;;;;;;;3.00;1.42;;;6.70;53.40;;;;;;10361200;28;20069;-84
2021/03/19 16:21:29;;;;;;;4.10;1.70;;;7.10;52.60;;;;;;10407622;28;20059;-83
2021/03/19 16:26:30;;;;;;;3.55;1.88;;;7.40;52.80;;;;;;10402608;28;20108;-84
2021/03/19 16:31:34;;;;;;;2.60;1.40;;;7.40;49.70;;;;;;10405703;28;20072;-84
2021/03/19 16:36:39;;;;;;;3.17;1.50;;;7.20;51.00;;;;;;10405615;28;20562;-84
2021/03/19 16:41:40;;;;;;;1.67;1.20;;;6.80;48.30;;;;;;10390641;28;20049;-84
2021/03/19 16:46:43;;;;;;;2.78;1.20;;;6.60;48.90;;;;;;10388053;28;20053;-84
2021/03/19 16:51:46;;;;;;;1.85;1.13;;;6.60;48.60;;;;;;10405197;28;20088;-84
2021/03/19 16:56:47;;;;;;;1.73;1.20;;;6.50;48.40;;;;;;10405655;28;20080;-84
2021/03/19 17:01:49;;;;;;;2.97;1.35;;;6.30;48.60;;;;;;10405349;28;20053;-84
2021/03/19 17:06:51;;;;;;;2.85;1.40;;;6.20;47.90;;;;;;10400049;28;20042;-83
2021/03/19 17:11:52;;;;;;;2.28;1.20;;;5.80;49.60;;;;;;10404314;28;20125;-84
2021/03/19 17:16:54;;;;;;;2.50;1.33;;;5.60;50.70;;;;;;10405216;28;20147;-84
2021/03/19 17:21:57;;;;;;;2.60;1.20;;;5.40;51.50;;;;;;10387985;28;20045;-84
2021/03/19 17:26:58;;;;;;;2.33;1.13;;;5.30;52.80;;;;;;10405115;28;20084;-83
2021/03/19 17:32:00;;;;;;;2.03;1.30;;;5.20;53.40;;;;;;10404016;28;20478;-83
2021/03/19 17:37:03;;;;;;;2.60;1.38;;;5.00;54.40;;;;;;10432285;28;20041;-88
2021/03/19 17:42:04;;;;;;;2.88;1.30;;;4.70;56.00;;;;;;10390531;28;20465;-88
2021/03/19 17:47:07;;;;;;;1.33;1.10;;;4.50;57.10;;;;;;10393758;28;20058;-85
2021/03/19 17:52:09;;;;;;;3.72;1.25;;;4.30;58.00;;;;;;10408832;28;20056;-85
2021/03/19 17:57:11;;;;;;;2.55;1.30;;;4.20;58.90;;;;;;10388891;28;20076;-84
2021/03/19 18:02:21;;;;;;;3.03;1.30;;;4.10;59.10;;;;;;10391465;28;20104;-87
2021/03/19 18:07:23;;;;;;;1.70;1.17;;;4.00;60.10;;;;;;10413785;28;20045;-86
2021/03/19 18:12:25;;;;;;;2.75;1.20;;;3.90;59.50;;;;;;10415827;28;20045;-86
2021/03/19 18:17:26;;;;;;;1.15;0.95;;;3.70;59.50;;;;;;10398342;28;20115;-86
2021/03/19 18:22:28;;;;;;;3.25;1.40;;;3.70;60.10;;;;;;10415996;28;20055;-86
2021/03/19 18:27:30;;;;;;;3.33;1.50;;;3.60;61.30;;;;;;10415565;28;20058;-86
2021/03/19 18:32:32;;;;;;;3.90;1.30;;;3.50;61.80;;;;;;10397645;28;20545;-86
2021/03/19 18:37:37;;;;;;;2.03;1.17;;;3.40;62.10;;;;;;10396749;28;20053;-86
2021/03/19 18:42:39;;;;;;;1.70;1.20;;;3.30;62.30;;;;;;10396347;28;20085;-86
2021/03/19 18:47:41;;;;;;;2.53;1.40;;;3.30;62.70;;;;;;10414937;28;20445;-86
2021/03/19 18:52:44;;;;;;;2.80;1.40;;;3.20;63.80;;;;;;10414388;28;20052;-86
2021/03/19 18:57:45;;;;;;;2.70;1.40;;;3.10;64.40;;;;;;10414545;28;20180;-86
2021/03/19 19:02:47;;;;;;;2.72;1.70;;;3.00;64.80;;;;;;10414184;28;20479;-86
2021/03/19 19:07:49;;;;;;;2.85;1.55;;;3.00;65.50;;;;;;10414582;28;20050;-86
2021/03/19 19:12:51;;;;;;;3.05;1.40;;;3.00;66.00;;;;;;10413856;28;20054;-87
2021/03/19 19:17:53;;;;;;;3.33;1.60;;;3.00;66.40;;;;;;10412125;28;20450;-86
2021/03/19 19:22:55;;;;;;;3.38;1.65;;;2.90;67.10;;;;;;10411177;28;20133;-85
2021/03/19 19:27:57;;;;;;;3.30;1.60;;;2.90;67.10;;;;;;10395749;28;20049;-86
2021/03/19 19:32:59;;;;;;;3.22;1.63;;;3.00;68.00;;;;;;10413110;28;20487;-86
2021/03/19 19:38:03;;;;;;;3.90;1.75;;;3.00;68.40;;;;;;10412202;28;20463;-86
2021/03/19 19:43:05;;;;;;;3.80;1.52;;;3.00;69.70;;;;;;10412685;28;20482;-86
2021/03/19 19:48:08;;;;;;;3.30;1.58;;;2.90;70.40;;;;;;10394765;28;20408;-86
2021/03/19 19:53:09;;;;;;;5.75;1.70;;;2.90;71.00;;;;;;10395111;28;20048;-86
2021/03/19 19:58:15;;;;;;;3.35;1.80;;;2.80;73.10;;;;;;10412258;28;20087;-86
2021/03/19 20:03:31;;;;;;;3.70;2.10;;;2.80;76.10;;;;;;10412810;28;20045;-86
2021/03/19 20:08:33;;;;;;;4.38;2.20;;;2.80;77.70;;;;;;10411660;28;20048;-86
2021/03/19 20:13:37;;;;;;;5.43;2.40;;;2.80;78.00;;;;;;10411453;28;20049;-86
2021/03/19 20:18:46;;;;;;;7.05;2.22;;;2.90;79.00;;;;;;10411909;28;20127;-86
2021/03/19 20:23:48;;;;;;;5.18;2.33;;;2.90;81.90;;;;;;10410934;28;20077;-86
2021/03/19 20:28:52;;;;;;;4.55;2.50;;;2.90;81.20;;;;;;10410153;28;20112;-86
2021/03/19 20:33:54;;;;;;;6.28;2.67;;;2.80;83.30;;;;;;10393145;28;20132;-86
2021/03/19 20:38:56;;;;;;;5.30;2.47;;;2.70;85.70;;;;;;10393433;28;20061;-86
2021/03/19 20:43:58;;;;;;;5.47;3.05;;;2.60;88.10;;;;;;10410574;28;20128;-86
2021/03/19 20:48:59;;;;;;;5.40;3.00;;;2.50;89.30;;;;;;10409714;28;20541;-86
2021/03/19 20:54:02;;;;;;;6.22;3.60;;;2.40;90.80;;;;;;10410471;28;20095;-87
2021/03/19 20:59:04;;;;;;;5.88;3.13;;;2.30;92.00;;;;;;10409848;28;20077;-86
2021/03/19 21:04:09;;;;;;;6.78;4.28;;;2.20;93.60;;;;;;10405945;28;20066;-86
2021/03/19 21:09:19;;;;;;;6.47;2.95;;;2.00;94.30;;;;;;10385056;28;20506;-86
2021/03/19 21:14:22;;;;;;;5.75;3.22;;;1.90;96.90;;;;;;10407385;28;20141;-86
2021/03/19 21:19:24;;;;;;;7.15;3.58;;;1.90;98.00;;;;;;10441776;28;20116;-85
2021/03/19 21:24:26;;;;;;;7.15;3.60;;;1.90;98.20;;;;;;10408378;28;20115;-86
2021/03/19 21:29:29;;;;;;;6.40;3.40;;;1.90;99.20;;;;;;10409245;28;20045;-86
2021/03/19 21:34:31;;;;;;;6.63;3.47;;;1.70;99.90;;;;;;10409128;28;20108;-87
2021/03/19 21:39:34;;;;;;;6.25;3.78;;;1.50;99.90;;;;;;10408280;28;20495;-87
2021/03/19 21:44:36;;;;;;;5.00;3.03;;;1.40;99.90;;;;;;10409664;28;20128;-87
2021/03/19 21:49:39;;;;;;;6.80;3.55;;;1.40;99.90;;;;;;10408866;28;20577;-87
2021/03/19 21:54:40;;;;;;;7.35;4.22;;;1.40;99.90;;;;;;10409213;28;20132;-87
2021/03/19 21:59:42;;;;;;;6.68;4.07;;;1.30;99.90;;;;;;10408624;28;20462;-86
2021/03/19 22:04:43;;;;;;;6.45;3.97;;;1.30;99.90;;;;;;10406225;28;20883;-86
2021/03/19 22:09:46;;;;;;;7.05;3.60;;;1.20;99.90;;;;;;10390184;28;20049;-86
2021/03/19 22:14:47;;;;;;;9.13;4.15;;;1.10;99.90;;;;;;10405436;28;20527;-86
2021/03/19 22:19:49;;;;;;;6.90;3.92;;;1.00;99.90;;;;;;10397536;28;20090;-86
2021/03/19 22:24:51;;;;;;;7.40;3.90;;;0.80;99.90;;;;;;10395431;28;20130;-86
2021/03/19 22:29:53;;;;;;;6.35;3.60;;;0.70;99.90;;;;;;10406268;28;20068;-86
2021/03/19 22:34:55;;;;;;;6.22;3.50;;;0.70;99.90;;;;;;10406834;28;20053;-86
2021/03/19 22:40:15;;;;;;;6.20;3.83;;;0.70;99.90;;;;;;10406560;28;20630;-85
2021/03/19 22:45:17;;;;;;;7.60;3.60;;;0.70;99.90;;;;;;10404545;28;20053;-86
2021/03/19 22:50:24;;;;;;;5.95;3.83;;;0.70;99.90;;;;;;10404257;28;20060;-86
2021/03/19 22:55:26;;;;;;;9.02;4.13;;;0.70;99.90;;;;;;10413274;28;20095;-86
2021/03/19 23:00:40;;;;;;;10.40;5.00;;;0.60;99.90;;;;;;10412989;28;20115;-86
2021/03/19 23:05:42;;;;;;;9.65;5.20;;;0.80;99.90;;;;;;10413819;28;20050;-86
2021/03/19 23:10:54;;;;;;;8.77;3.65;;;0.90;99.90;;;;;;10413199;28;20041;-86
2021/03/19 23:15:55;;;;;;;6.72;3.80;;;1.00;99.90;;;;;;10412958;28;20558;-86
2021/03/19 23:20:58;;;;;;;9.07;3.83;;;1.10;99.90;;;;;;10410809;28;20049;-86
2021/03/19 23:26:00;;;;;;;5.80;3.55;;;1.10;99.90;;;;;;10409747;28;20443;-86
2021/03/19 23:31:04;;;;;;;9.07;4.75;;;1.10;99.90;;;;;;10412254;28;20149;-86
2021/03/19 23:36:06;;;;;;;6.35;4.03;;;1.20;99.90;;;;;;10412425;28;20472;-86
2021/03/19 23:41:16;;;;;;;6.75;4.30;;;1.10;99.90;;;;;;10409805;28;20281;-86
2021/03/19 23:46:26;;;;;;;5.68;3.72;;;1.10;99.90;;;;;;10412113;28;20062;-86
2021/03/19 23:51:29;;;;;;;7.65;4.10;;;1.10;99.90;;;;;;10411869;28;20042;-86
2021/03/19 23:56:32;;;;;;;5.82;3.63;;;1.10;99.90;;;;;;10411215;28;20088;-86
